EKNM weather

Morsø Airport, Tødsø
Morsø, North Jutland, Denmark

Public forecast

Using degrees Celsius for public forecast. Weather courtesy of forecast.io.

METAR (pilot weather report)

Closest report is Karup Airport, 33.6 nm (62.1 km) SSE. Retrieved 2019/04/20 16:20 UTC (25 minutes ago):

EKKA 201620Z AUTO 32011KT 9999 NCD 19/02 Q1031

TAF (pilot weather forecast)

Closest forecast is Karup Airport, 33.6 nm (62.1 km) SSE. Retrieved 2019/04/20 15:31 UTC (1 hour ago):

TAF EKKA 201408Z 2015/2115 VRB05KT 9999 FEW200